Terminal Aerodrome Forecast
Issued by NWS Blacksburg, VA

Current Version | Previous Version | Text Only | Print | Product List | Glossary Off
Versions: 1 2 3 4 5 6 7 8 9 10 11 12 13 14 15 16 17 18 19 20 21 22 23 24 25 26

000
FTUS41 KRNK 250530
TAFBLF
TAF
KBLF 250530Z 2506/2606 18007KT P6SM SKC
     FM251600 22008G17KT P6SM SCT045 SCT250
      TEMPO 2519/2523 BKN045
     FM260000 17008KT P6SM SCT050 BKN250=

USA.gov is the U.S. government's official web portal to all federal, state and local government web resources and services.